createdAt,value
2019-05-04T00:00:39.698Z,15.50
2019-05-04T00:03:09.298Z,11.00
2019-05-04T00:05:44.349Z,12.70
2019-05-04T00:08:14.648Z,15.70
2019-05-04T00:10:44.899Z,12.85
2019-05-04T00:13:15.417Z,17.02
2019-05-04T00:15:45.035Z,15.15
2019-05-04T00:18:15.324Z,11.60
2019-05-04T00:20:53.168Z,16.87
2019-05-04T00:23:16.024Z,13.60
2019-05-04T00:25:45.597Z,12.80
2019-05-04T00:28:15.416Z,18.48
2019-05-04T00:30:45.317Z,14.95
2019-05-04T00:33:28.062Z,13.75
2019-05-04T00:36:16.501Z,11.18
2019-05-04T00:38:45.960Z,11.83
2019-05-04T00:41:15.521Z,13.83
2019-05-04T00:43:44.993Z,15.30
2019-05-04T00:46:16.166Z,14.87
2019-05-04T00:48:45.582Z,12.60
2019-05-04T00:51:15.035Z,18.85
2019-05-04T00:53:45.460Z,12.18
2019-05-04T00:56:19.210Z,12.00
2019-05-04T00:58:55.431Z,13.70
2019-05-04T01:01:29.552Z,10.93
2019-05-04T01:03:59.017Z,11.60
2019-05-04T01:06:28.460Z,14.30
2019-05-04T01:08:57.952Z,18.12
2019-05-04T01:11:27.415Z,8.85
2019-05-04T01:13:57.894Z,13.62
2019-05-04T01:16:27.480Z,17.75
2019-05-04T01:18:57.323Z,8.78
2019-05-04T01:21:27.146Z,7.78
2019-05-04T01:23:56.594Z,18.90
2019-05-04T01:26:26.079Z,16.30
2019-05-04T01:28:55.869Z,11.18
2019-05-04T01:31:25.876Z,14.25
2019-05-04T01:34:05.135Z,13.28
2019-05-04T01:36:40.016Z,11.73
2019-05-04T01:39:21.496Z,8.80
2019-05-04T01:41:51.336Z,11.12
2019-05-04T01:44:20.801Z,10.25
2019-05-04T01:46:50.271Z,15.18
2019-05-04T01:49:19.698Z,6.58
2019-05-04T01:51:49.251Z,9.80
2019-05-04T01:54:18.688Z,13.55
2019-05-04T01:56:51.411Z,16.95
2019-05-04T01:59:42.365Z,11.75
2019-05-04T02:02:11.897Z,13.10
2019-05-04T02:04:41.370Z,15.85
2019-05-04T02:07:10.830Z,10.70
2019-05-04T02:09:40.297Z,15.72
2019-05-04T02:12:10.119Z,10.75
2019-05-04T02:14:39.585Z,13.15
2019-05-04T02:17:09.076Z,9.90
2019-05-04T02:19:38.539Z,10.45
2019-05-04T02:22:14.617Z,14.68
2019-05-04T02:24:45.625Z,13.30
2019-05-04T02:27:36.843Z,11.95
2019-05-04T02:30:16.375Z,25.65
2019-05-04T02:32:46.558Z,10.65
2019-05-04T02:35:16.885Z,10.98
2019-05-04T02:38:04.338Z,14.28
2019-05-04T02:40:37.409Z,9.18
2019-05-04T02:43:01.318Z,12.75
2019-05-04T02:45:30.769Z,11.80
2019-05-04T02:48:25.466Z,7.35
2019-05-04T02:50:59.345Z,11.40
2019-05-04T02:53:28.789Z,16.00
2019-05-04T02:55:58.274Z,12.03
2019-05-04T02:58:33.919Z,20.85
2019-05-04T03:00:58.847Z,8.75
2019-05-04T03:03:28.312Z,9.63
2019-05-04T03:05:57.769Z,18.30
2019-05-04T03:08:33.552Z,13.90
2019-05-04T03:10:58.463Z,12.90
2019-05-04T03:13:28.035Z,10.23
2019-05-04T03:15:57.474Z,22.77
2019-05-04T03:18:35.526Z,11.03
2019-05-04T03:21:42.531Z,9.63
2019-05-04T03:24:30.921Z,15.30
2019-05-04T03:27:00.375Z,12.05
2019-05-04T03:29:29.793Z,8.73
2019-05-04T03:31:59.495Z,7.85
2019-05-04T03:34:52.150Z,10.18
2019-05-04T03:37:00.009Z,14.23
2019-05-04T03:39:29.842Z,10.88
2019-05-04T03:41:59.228Z,7.08
2019-05-04T03:44:28.631Z,11.83
2019-05-04T03:47:17.021Z,12.15
2019-05-04T03:50:00.349Z,9.25
2019-05-04T03:52:37.391Z,7.47
2019-05-04T03:55:08.959Z,10.23
2019-05-04T03:57:38.442Z,11.63
2019-05-04T04:00:12.153Z,8.08
2019-05-04T04:02:41.574Z,9.05
2019-05-04T04:05:11.412Z,10.88
2019-05-04T04:07:40.832Z,10.58
2019-05-04T04:10:10.455Z,8.85
2019-05-04T04:12:39.881Z,9.75
2019-05-04T04:15:09.950Z,9.63
2019-05-04T04:17:48.104Z,9.48
2019-05-04T04:20:17.549Z,9.15
2019-05-04T04:22:47.314Z,11.15
2019-05-04T04:25:25.570Z,13.98
2019-05-04T04:27:55.942Z,11.75
2019-05-04T04:30:26.072Z,13.32
2019-05-04T04:32:55.986Z,23.92
2019-05-04T04:35:26.762Z,16.30
2019-05-04T04:37:56.639Z,20.60
2019-05-04T04:40:26.567Z,11.80
2019-05-04T04:42:56.343Z,12.70
2019-05-04T04:45:26.001Z,11.18
2019-05-04T04:47:55.763Z,18.90
2019-05-04T04:50:37.568Z,7.72
2019-05-04T04:53:07.593Z,16.25
2019-05-04T04:55:37.174Z,15.00
2019-05-04T04:58:12.069Z,12.23
2019-05-04T05:01:06.206Z,8.13
2019-05-04T05:03:35.751Z,10.05
2019-05-04T05:06:05.289Z,13.13
2019-05-04T05:08:35.762Z,13.80
2019-05-04T05:11:05.407Z,16.00
2019-05-04T05:13:34.843Z,14.20
2019-05-04T05:16:04.471Z,14.15
2019-05-04T05:18:34.723Z,13.85
2019-05-04T05:21:29.014Z,16.02
2019-05-04T05:23:58.427Z,15.28
2019-05-04T05:26:27.833Z,13.30
2019-05-04T05:28:57.256Z,18.67
2019-05-04T05:31:39.861Z,17.85
2019-05-04T05:34:44.415Z,16.57
2019-05-04T05:37:14.722Z,13.25
2019-05-04T05:39:57.049Z,15.88
2019-05-04T05:42:18.413Z,15.43
2019-05-04T05:44:46.403Z,12.33
2019-05-04T05:47:41.014Z,8.75
2019-05-04T05:50:15.946Z,19.95
2019-05-04T05:52:57.694Z,16.93
2019-05-04T05:55:44.356Z,17.90
2019-05-04T05:58:47.892Z,10.20
2019-05-04T06:01:35.236Z,12.70
2019-05-04T06:04:26.400Z,13.22
2019-05-04T06:07:00.165Z,8.93
2019-05-04T06:09:29.647Z,14.20
2019-05-04T06:12:03.101Z,8.45
2019-05-04T06:15:00.287Z,10.00
2019-05-04T06:17:47.011Z,14.13
2019-05-04T06:20:21.288Z,15.23
2019-05-04T06:23:09.658Z,11.35
2019-05-04T06:25:48.708Z,9.38
2019-05-04T06:28:28.257Z,19.15
2019-05-04T06:31:15.170Z,7.72
2019-05-04T06:33:51.931Z,13.13
2019-05-04T06:36:49.169Z,13.40
2019-05-04T06:39:38.678Z,13.22
2019-05-04T06:42:16.961Z,11.43
2019-05-04T06:44:54.583Z,13.20
2019-05-04T06:47:22.807Z,12.60
2019-05-04T06:49:54.216Z,15.10
2019-05-04T06:52:38.978Z,10.30
2019-05-04T06:55:19.424Z,17.10
2019-05-04T06:58:07.573Z,11.78
2019-05-04T07:00:44.688Z,22.98
2019-05-04T07:03:23.821Z,13.10
2019-05-04T07:05:45.392Z,11.90
2019-05-04T07:08:28.462Z,10.20
2019-05-04T07:11:06.414Z,15.55
2019-05-04T07:13:24.034Z,15.75
2019-05-04T07:15:49.832Z,15.60
2019-05-04T07:18:19.898Z,14.53
2019-05-04T07:20:49.334Z,12.80
2019-05-04T07:23:19.754Z,10.25
2019-05-04T07:25:54.845Z,13.78
2019-05-04T07:28:20.473Z,17.12
2019-05-04T07:30:54.504Z,13.28
2019-05-04T07:33:28.939Z,16.30
2019-05-04T07:36:15.920Z,19.02
2019-05-04T07:39:14.778Z,17.02
2019-05-04T07:41:51.123Z,11.90
2019-05-04T07:44:19.082Z,11.85
2019-05-04T07:46:49.667Z,24.80
2019-05-04T07:49:19.511Z,23.00
2019-05-04T07:51:53.181Z,21.17
2019-05-04T07:54:26.951Z,20.65
2019-05-04T07:56:53.669Z,17.57
2019-05-04T07:59:27.536Z,18.62
2019-05-04T08:01:54.825Z,13.90
2019-05-04T08:04:24.892Z,20.20
2019-05-04T08:07:00.200Z,19.05
2019-05-04T08:09:25.566Z,24.85
2019-05-04T08:12:17.054Z,26.23
2019-05-04T08:14:59.006Z,18.67
2019-05-04T08:17:17.663Z,17.90
2019-05-04T08:19:47.486Z,19.25
2019-05-04T08:22:20.130Z,38.15
2019-05-04T08:24:49.103Z,60.03
2019-05-04T08:27:26.021Z,24.23
2019-05-04T08:29:59.678Z,19.10
2019-05-04T08:32:26.726Z,19.77
2019-05-04T08:34:56.669Z,16.90
2019-05-04T08:37:30.469Z,21.17
2019-05-04T08:39:57.549Z,22.50
2019-05-04T08:42:30.790Z,19.60
2019-05-04T08:44:58.263Z,19.05
2019-05-04T08:47:54.733Z,20.25
2019-05-04T08:50:24.565Z,31.77
2019-05-04T08:53:01.608Z,21.27
2019-05-04T08:55:55.567Z,25.92
2019-05-04T08:58:31.499Z,28.65
2019-05-04T09:01:11.100Z,18.75
2019-05-04T09:03:34.754Z,20.35
2019-05-04T09:06:15.817Z,25.02
2019-05-04T09:08:35.414Z,17.62
2019-05-04T09:11:13.307Z,72.95
2019-05-04T09:13:38.105Z,27.98
2019-05-04T09:16:07.166Z,24.90
2019-05-04T09:18:39.854Z,25.97
2019-05-04T09:21:10.486Z,22.32
2019-05-04T09:23:39.987Z,18.80
2019-05-04T09:26:12.666Z,23.83
2019-05-04T09:28:43.558Z,23.73
2019-05-04T09:31:12.149Z,23.35
2019-05-04T09:33:47.732Z,17.98
2019-05-04T09:36:15.238Z,20.55
2019-05-04T09:38:44.890Z,16.57
2019-05-04T09:41:29.806Z,14.90
2019-05-04T09:44:01.583Z,20.00
2019-05-04T09:46:30.519Z,34.78
2019-05-04T09:49:00.118Z,16.48
2019-05-04T09:51:34.416Z,20.17
2019-05-04T09:54:05.022Z,17.40
2019-05-04T09:56:35.108Z,15.25
2019-05-04T09:59:08.062Z,14.90
2019-05-04T10:09:44.246Z,15.80
2019-05-04T10:12:19.856Z,18.20
2019-05-04T10:14:56.471Z,15.35
2019-05-04T10:17:37.465Z,13.65
2019-05-04T10:20:07.059Z,16.55
2019-05-04T10:22:36.533Z,8.53
2019-05-04T10:25:06.137Z,7.70
2019-05-04T10:27:40.335Z,6.70
2019-05-04T10:30:12.588Z,6.53
2019-05-04T10:32:41.289Z,4.25
2019-05-04T10:35:10.953Z,4.90
2019-05-04T10:37:40.390Z,2.62
2019-05-04T10:40:11.103Z,9.05
2019-05-04T10:42:42.606Z,2.58
2019-05-04T10:45:11.851Z,2.67
2019-05-04T10:47:41.298Z,1.77
2019-05-04T10:50:12.030Z,2.25
2019-05-04T10:52:44.576Z,1.65
2019-05-04T10:55:14.997Z,5.22
2019-05-04T10:57:45.061Z,2.05
2019-05-04T11:00:14.886Z,2.10
2019-05-04T11:02:45.009Z,3.15
2019-05-04T11:05:15.252Z,1.85
2019-05-04T11:07:45.581Z,1.07
2019-05-04T11:10:15.442Z,1.67
2019-05-04T11:12:45.626Z,1.65
2019-05-04T11:15:15.505Z,1.55
2019-05-04T11:17:44.959Z,1.95
2019-05-04T11:20:15.937Z,3.05
2019-05-04T11:22:45.445Z,1.90
2019-05-04T11:25:27.906Z,2.52
2019-05-04T11:31:55.194Z,4.22
2019-05-04T11:34:25.336Z,2.08
2019-05-04T11:36:55.328Z,2.08
2019-05-04T11:39:24.800Z,2.67
2019-05-04T11:41:54.851Z,1.87
2019-05-04T11:44:27.545Z,2.25
2019-05-04T11:46:59.933Z,1.17
2019-05-04T11:49:27.097Z,1.12
2019-05-04T11:51:56.630Z,3.05
2019-05-04T11:54:26.318Z,1.65
2019-05-04T11:56:55.823Z,2.77
2019-05-04T11:59:25.360Z,1.35
2019-05-04T12:01:54.918Z,1.35
2019-05-04T12:04:42.046Z,2.58
2019-05-04T12:07:34.582Z,1.30
2019-05-04T12:10:10.274Z,1.87
2019-05-04T12:12:39.798Z,1.40
2019-05-04T12:15:09.710Z,1.80
2019-05-04T12:17:39.283Z,1.35
2019-05-04T12:20:08.906Z,2.75
2019-05-04T12:22:38.645Z,3.25
2019-05-04T12:25:08.225Z,5.42
2019-05-04T12:27:37.722Z,2.85
2019-05-04T12:30:07.314Z,1.98
2019-05-04T12:32:36.836Z,2.80
2019-05-04T12:35:06.990Z,1.80
2019-05-04T12:37:36.463Z,1.00
2019-05-04T12:40:06.874Z,1.10
2019-05-04T12:42:36.391Z,1.22
2019-05-04T12:45:06.167Z,1.70
2019-05-04T12:47:35.802Z,1.37
2019-05-04T12:50:06.076Z,2.30
2019-05-04T12:52:35.745Z,2.90
2019-05-04T12:55:06.087Z,4.05
2019-05-04T12:57:35.637Z,3.05
2019-05-04T13:00:06.164Z,5.03
2019-05-04T13:02:35.643Z,1.40
2019-05-04T13:05:05.493Z,1.65
2019-05-04T13:07:35.311Z,3.72
2019-05-04T13:10:06.216Z,1.30
2019-05-04T13:12:35.646Z,1.60
2019-05-04T13:15:05.507Z,6.75
2019-05-04T13:17:46.513Z,1.45
2019-05-04T13:20:18.731Z,4.30
2019-05-04T13:22:47.850Z,3.17
2019-05-04T13:25:17.712Z,1.17
2019-05-04T13:27:47.226Z,1.98
2019-05-04T13:30:17.169Z,8.83
2019-05-04T13:32:47.253Z,3.98
2019-05-04T13:35:17.249Z,2.25
2019-05-04T13:37:46.778Z,2.30
2019-05-04T13:40:16.877Z,3.52
2019-05-04T13:42:46.379Z,2.45
2019-05-04T13:45:15.986Z,3.42
2019-05-04T13:47:45.473Z,3.45
2019-05-04T13:50:15.671Z,3.60
2019-05-04T13:52:47.687Z,3.35
2019-05-04T13:55:36.074Z,1.50
2019-05-04T13:58:25.803Z,1.72
2019-05-04T14:01:34.289Z,1.27
2019-05-04T14:04:21.704Z,1.20
2019-05-04T14:06:52.032Z,1.32
2019-05-04T14:09:21.567Z,1.30
2019-05-04T14:11:51.727Z,0.88
2019-05-04T14:14:21.594Z,1.00
2019-05-04T14:16:52.113Z,1.10
2019-05-04T14:19:21.730Z,1.90
2019-05-04T14:21:52.000Z,1.30
2019-05-04T14:24:21.812Z,0.72
2019-05-04T14:26:51.472Z,1.00
2019-05-04T14:29:21.070Z,0.80
2019-05-04T14:31:50.904Z,0.90
2019-05-04T14:34:20.503Z,0.90
2019-05-04T14:36:53.444Z,1.00
2019-05-04T14:39:25.041Z,0.80
2019-05-04T14:41:55.994Z,0.80
2019-05-04T14:44:59.289Z,0.90
2019-05-04T14:47:30.433Z,0.70
2019-05-04T14:50:00.272Z,0.80
2019-05-04T14:52:30.054Z,0.70
2019-05-04T14:54:59.554Z,1.22
2019-05-04T14:57:29.060Z,0.90
2019-05-04T14:59:58.498Z,1.27
2019-05-04T15:02:28.443Z,1.10
2019-05-04T15:05:15.507Z,2.60
2019-05-04T15:07:45.002Z,1.20
2019-05-04T15:10:14.964Z,7.72
2019-05-04T15:12:44.554Z,1.15
2019-05-04T15:15:16.508Z,2.45
2019-05-04T15:17:45.600Z,1.00
2019-05-04T15:20:40.527Z,1.12
2019-05-04T15:23:10.523Z,0.80
2019-05-04T15:25:40.659Z,1.52
2019-05-04T15:28:10.700Z,1.30
2019-05-04T15:30:40.951Z,2.05
2019-05-04T15:33:10.421Z,2.12
2019-05-04T15:35:39.900Z,2.08
2019-05-04T15:38:10.124Z,3.65
2019-05-04T15:40:39.567Z,4.53
2019-05-04T15:43:09.019Z,2.27
2019-05-04T15:45:38.459Z,1.50
2019-05-04T15:48:08.660Z,1.65
2019-05-04T15:51:06.749Z,1.62
2019-05-04T15:53:45.920Z,1.45
2019-05-04T15:56:22.034Z,1.75
2019-05-04T15:58:54.491Z,2.10
2019-05-04T16:01:24.745Z,2.22
2019-05-04T16:03:54.974Z,2.10
2019-05-04T16:06:26.401Z,5.15
2019-05-04T16:08:56.393Z,5.15
2019-05-04T16:11:26.103Z,5.00
2019-05-04T16:13:56.958Z,5.17
2019-05-04T16:16:26.835Z,4.28
2019-05-04T16:18:56.357Z,8.03
2019-05-04T16:21:25.847Z,4.72
2019-05-04T16:23:55.311Z,4.12
2019-05-04T16:26:24.803Z,21.52
2019-05-04T16:28:54.984Z,18.70
2019-05-04T16:31:25.271Z,43.28
2019-05-04T16:33:54.970Z,44.58
2019-05-04T16:36:24.917Z,7.42
2019-05-04T16:38:55.366Z,4.33
2019-05-04T16:41:26.378Z,3.87
2019-05-04T16:43:55.980Z,4.28
2019-05-04T16:46:25.451Z,12.55
2019-05-04T16:48:56.956Z,11.90
2019-05-04T16:51:47.735Z,4.47
2019-05-04T16:54:17.204Z,4.22
2019-05-04T16:56:46.708Z,4.15
2019-05-04T16:59:16.477Z,3.47
2019-05-04T17:02:14.568Z,4.28
2019-05-04T17:04:52.019Z,4.05
2019-05-04T17:07:21.843Z,3.05
2019-05-04T17:09:51.910Z,4.20
2019-05-04T17:12:24.516Z,5.42
2019-05-04T17:14:55.057Z,4.97
2019-05-04T17:17:24.938Z,5.95
2019-05-04T17:19:55.562Z,3.27
2019-05-04T17:22:25.496Z,3.85
2019-05-04T17:24:59.656Z,6.05
2019-05-04T17:27:48.123Z,3.55
2019-05-04T17:30:37.689Z,6.35
2019-05-04T17:33:10.871Z,5.87
2019-05-04T17:35:44.476Z,6.50
2019-05-04T17:38:15.284Z,5.25
2019-05-04T17:40:55.863Z,4.22
2019-05-04T17:43:54.260Z,4.47
2019-05-04T17:46:25.891Z,3.60
2019-05-04T17:48:55.301Z,3.45
2019-05-04T17:51:24.758Z,5.72
2019-05-04T17:53:55.083Z,6.08
2019-05-04T17:56:24.671Z,3.45
2019-05-04T17:58:54.956Z,3.10
2019-05-04T18:01:44.275Z,3.98
2019-05-04T18:04:16.649Z,5.67
2019-05-04T18:06:46.506Z,4.15
2019-05-04T18:09:16.020Z,12.40
2019-05-04T18:11:55.459Z,8.03
2019-05-04T18:14:44.424Z,10.55
2019-05-04T18:17:23.636Z,10.28
2019-05-04T18:19:54.671Z,8.48
2019-05-04T18:22:24.769Z,7.90
2019-05-04T18:24:54.822Z,7.87
2019-05-04T18:27:24.270Z,9.13
2019-05-04T18:29:54.786Z,5.90
2019-05-04T18:32:25.389Z,4.97
2019-05-04T18:34:55.311Z,4.20
2019-05-04T18:37:25.272Z,6.75
2019-05-04T18:39:54.906Z,11.57
2019-05-04T18:42:25.994Z,8.20
2019-05-04T18:45:34.796Z,6.33
2019-05-04T18:48:25.357Z,7.37
2019-05-04T18:50:57.607Z,6.60
2019-05-04T18:53:28.695Z,6.67
2019-05-04T18:55:58.360Z,7.35
2019-05-04T18:58:29.313Z,6.05
2019-05-04T19:00:59.373Z,5.85
2019-05-04T19:03:32.042Z,11.90
2019-05-04T19:06:18.746Z,8.50
2019-05-04T19:08:49.797Z,9.58
2019-05-04T19:11:19.730Z,8.55
2019-05-04T19:13:49.954Z,11.40
2019-05-04T19:16:19.870Z,7.47
2019-05-04T19:18:54.990Z,12.95
2019-05-04T19:21:25.773Z,14.63
2019-05-04T19:24:05.113Z,19.95
2019-05-04T19:26:36.558Z,20.37
2019-05-04T19:29:15.879Z,20.05
2019-05-04T19:31:47.114Z,21.20
2019-05-04T19:34:30.862Z,11.85
2019-05-04T19:37:04.927Z,10.03
2019-05-04T19:39:36.740Z,13.68
2019-05-04T19:42:17.165Z,10.05
2019-05-04T19:44:55.680Z,12.03
2019-05-04T19:47:27.082Z,12.80
2019-05-04T19:50:00.658Z,21.30
2019-05-04T19:52:31.751Z,13.20
2019-05-04T19:55:03.405Z,11.60
2019-05-04T19:57:36.042Z,8.63
2019-05-04T20:00:07.011Z,9.60
2019-05-04T20:02:44.815Z,6.40
2019-05-04T20:05:14.626Z,6.92
2019-05-04T20:07:48.026Z,8.43
2019-05-04T20:10:27.882Z,6.30
2019-05-04T20:13:04.886Z,10.38
2019-05-04T20:15:39.874Z,12.18
2019-05-04T20:18:13.391Z,9.83
2019-05-04T20:20:46.383Z,11.38
2019-05-04T20:23:15.071Z,8.80
2019-05-04T20:25:45.332Z,11.43
2019-05-04T20:28:18.825Z,8.83
2019-05-04T20:30:55.110Z,8.85
2019-05-04T22:04:04.856Z,7.78
2019-05-04T22:06:44.843Z,13.32
2019-05-04T22:09:35.686Z,13.93
2019-05-04T22:12:05.311Z,12.82
2019-05-04T22:14:35.397Z,13.13
2019-05-04T22:17:06.749Z,12.70
2019-05-04T22:19:36.975Z,19.00
2019-05-04T22:22:06.410Z,18.57
2019-05-04T22:24:35.878Z,20.57
2019-05-04T22:27:05.495Z,21.23
2019-05-04T22:29:35.450Z,13.50
2019-05-04T22:32:05.283Z,15.23
2019-05-04T22:34:35.187Z,17.30
2019-05-04T22:37:15.700Z,14.28
2019-05-04T22:39:45.174Z,18.90
2019-05-04T22:42:14.824Z,25.15
2019-05-04T22:44:44.502Z,16.17
2019-05-04T22:47:13.984Z,12.28
2019-05-04T22:49:44.632Z,12.53
2019-05-04T22:52:23.033Z,12.70
2019-05-04T22:55:04.511Z,9.58
2019-05-04T22:57:57.059Z,8.83
2019-05-04T23:00:45.212Z,8.25
2019-05-04T23:03:16.283Z,10.40
2019-05-04T23:05:45.878Z,10.28
2019-05-04T23:08:15.351Z,8.85
2019-05-04T23:10:46.581Z,9.85
2019-05-04T23:13:16.119Z,9.45
2019-05-04T23:15:45.573Z,18.92
2019-05-04T23:18:16.495Z,12.63
2019-05-04T23:20:46.016Z,6.50
2019-05-04T23:23:20.474Z,10.68
2019-05-04T23:25:50.506Z,12.68
2019-05-04T23:28:19.999Z,9.75
2019-05-04T23:30:49.514Z,7.83
2019-05-04T23:33:18.950Z,11.70
2019-05-04T23:35:48.388Z,14.73
2019-05-04T23:38:17.863Z,12.63
2019-05-04T23:40:47.314Z,7.58
2019-05-04T23:43:16.790Z,7.47
2019-05-04T23:45:47.438Z,9.60
2019-05-04T23:48:20.350Z,10.35
2019-05-04T23:50:50.087Z,9.73
2019-05-04T23:53:19.543Z,8.68
2019-05-04T23:55:48.960Z,9.58
2019-05-04T23:58:40.443Z,7.80
